createdAt,value
2023-01-05T00:01:29.675Z,55.98
2023-01-05T00:03:56.637Z,56.47
2023-01-05T00:06:23.666Z,56.39
2023-01-05T00:08:52.389Z,56.70
2023-01-05T00:11:42.415Z,56.90
2023-01-05T00:14:38.074Z,56.93
2023-01-05T00:17:23.890Z,57.34
2023-01-05T00:20:10.046Z,57.39
2023-01-05T00:22:55.226Z,57.51
2023-01-05T00:25:27.177Z,57.69
2023-01-05T00:27:54.284Z,57.68
2023-01-05T00:30:23.959Z,57.25
2023-01-05T00:32:50.915Z,57.24
2023-01-05T00:35:18.041Z,57.80
2023-01-05T00:37:45.690Z,58.37
2023-01-05T00:40:15.202Z,58.12
2023-01-05T00:42:42.195Z,58.62
2023-01-05T00:45:11.250Z,57.91
2023-01-05T00:47:38.817Z,56.03
2023-01-05T00:50:06.779Z,54.77
2023-01-05T00:52:35.799Z,54.74
2023-01-05T00:55:02.801Z,55.23
2023-01-05T00:57:31.035Z,55.43
2023-01-05T00:59:57.911Z,55.71
2023-01-05T01:02:24.897Z,55.91
2023-01-05T01:04:52.005Z,56.29
2023-01-05T01:07:19.236Z,56.59
2023-01-05T01:09:46.164Z,56.54
2023-01-05T01:12:13.161Z,56.76
2023-01-05T01:14:40.264Z,56.83
2023-01-05T01:17:07.242Z,57.15
2023-01-05T01:19:35.216Z,57.34
2023-01-05T01:22:02.308Z,57.39
2023-01-05T01:24:29.345Z,57.79
2023-01-05T01:26:57.071Z,57.55
2023-01-05T01:29:24.500Z,57.34
2023-01-05T01:31:52.958Z,57.25
2023-01-05T01:34:19.844Z,57.33
2023-01-05T01:36:46.807Z,57.55
2023-01-05T01:39:14.344Z,57.16
2023-01-05T01:41:47.437Z,57.37
2023-01-05T01:44:52.494Z,57.71
2023-01-05T01:47:38.665Z,57.56
2023-01-05T01:50:14.079Z,57.57
2023-01-05T01:52:42.181Z,57.79
2023-01-05T01:55:09.668Z,58.25
2023-01-05T01:57:37.915Z,57.30
2023-01-05T02:00:06.734Z,56.29
2023-01-05T02:02:49.069Z,55.73
2023-01-05T02:05:18.983Z,55.81
2023-01-05T02:07:46.913Z,56.33
2023-01-05T02:10:15.445Z,56.34
2023-01-05T02:13:17.766Z,56.97
2023-01-05T02:15:50.200Z,57.06
2023-01-05T02:18:38.459Z,57.42
2023-01-05T02:21:13.220Z,57.63
2023-01-05T02:23:53.791Z,57.83
2023-01-05T02:26:39.846Z,57.86
2023-01-05T02:29:32.328Z,58.12
2023-01-05T02:32:09.937Z,58.39
2023-01-05T02:34:52.770Z,58.34
2023-01-05T02:37:33.890Z,57.20
2023-01-05T02:40:08.397Z,55.23
2023-01-05T02:42:38.109Z,54.64
2023-01-05T02:45:05.916Z,55.36
2023-01-05T02:47:41.504Z,55.85
2023-01-05T02:50:21.123Z,56.63
2023-01-05T02:53:00.504Z,56.98
2023-01-05T02:55:33.380Z,57.29
2023-01-05T02:58:10.553Z,57.39
2023-01-05T03:00:40.715Z,57.90
2023-01-05T03:03:19.300Z,58.14
2023-01-05T03:05:52.963Z,58.27
2023-01-05T03:08:29.092Z,58.26
2023-01-05T03:11:28.340Z,58.43
2023-01-05T03:14:14.515Z,58.59
2023-01-05T03:16:41.968Z,57.05
2023-01-05T03:19:31.497Z,55.71
2023-01-05T03:22:17.125Z,54.99
2023-01-05T03:25:05.600Z,55.14
2023-01-05T03:27:53.642Z,55.57
2023-01-05T03:30:40.806Z,56.08
2023-01-05T03:33:33.120Z,56.43
2023-01-05T03:36:00.171Z,57.34
2023-01-05T03:38:44.323Z,57.73
2023-01-05T03:41:13.112Z,57.63
2023-01-05T03:43:40.145Z,57.71
2023-01-05T03:46:14.923Z,57.99
2023-01-05T03:48:43.267Z,57.90
2023-01-05T03:51:10.713Z,58.41
2023-01-05T03:53:38.786Z,58.40
2023-01-05T03:56:06.051Z,58.49
2023-01-05T03:58:34.120Z,56.25
2023-01-05T04:01:01.112Z,55.32
2023-01-05T04:03:31.878Z,55.50
2023-01-05T04:06:00.424Z,55.75
2023-01-05T04:08:29.110Z,56.25
2023-01-05T04:10:58.360Z,56.69
2023-01-05T04:13:26.029Z,57.13
2023-01-05T04:15:54.679Z,57.78
2023-01-05T04:18:22.504Z,57.96
2023-01-05T04:20:50.397Z,58.27
2023-01-05T04:23:17.719Z,58.32
2023-01-05T04:25:47.136Z,58.75
2023-01-05T04:28:18.389Z,59.10
2023-01-05T04:30:50.434Z,58.04
2023-01-05T04:33:18.176Z,56.39
2023-01-05T04:35:45.468Z,56.00
2023-01-05T04:38:13.192Z,55.90
2023-01-05T04:40:40.395Z,56.26
2023-01-05T04:43:08.012Z,56.66
2023-01-05T04:45:34.914Z,57.20
2023-01-05T04:48:02.397Z,57.62
2023-01-05T04:50:29.673Z,58.04
2023-01-05T04:52:57.702Z,58.39
2023-01-05T04:55:27.989Z,58.80
2023-01-05T04:57:55.366Z,58.80
2023-01-05T05:00:23.481Z,59.00
2023-01-05T05:02:51.299Z,59.28
2023-01-05T05:05:19.046Z,58.35
2023-01-05T05:07:49.918Z,56.69
2023-01-05T05:10:18.322Z,56.19
2023-01-05T05:12:45.602Z,56.31
2023-01-05T05:15:15.467Z,56.89
2023-01-05T05:17:45.455Z,57.34
2023-01-05T05:20:13.580Z,57.35
2023-01-05T05:22:40.695Z,57.99
2023-01-05T05:25:09.209Z,57.81
2023-01-05T05:27:37.749Z,58.18
2023-01-05T05:30:05.222Z,58.29
2023-01-05T05:32:32.509Z,58.71
2023-01-05T05:34:59.634Z,58.87
2023-01-05T05:37:26.659Z,58.06
2023-01-05T05:39:53.695Z,56.38
2023-01-05T05:42:20.754Z,56.12
2023-01-05T05:44:47.790Z,56.33
2023-01-05T05:47:14.847Z,56.54
2023-01-05T05:49:41.796Z,56.87
2023-01-05T05:52:09.055Z,57.49
2023-01-05T05:54:35.902Z,57.37
2023-01-05T05:57:02.848Z,57.73
2023-01-05T05:59:30.160Z,58.16
2023-01-05T06:01:57.274Z,58.03
2023-01-05T06:04:24.248Z,58.19
2023-01-05T06:06:51.165Z,58.59
2023-01-05T06:09:18.554Z,58.97
2023-01-05T06:11:45.584Z,58.25
2023-01-05T06:14:13.229Z,56.94
2023-01-05T06:16:40.283Z,56.58
2023-01-05T06:19:07.536Z,57.85
2023-01-05T06:21:34.531Z,58.08
2023-01-05T06:24:01.585Z,58.55
2023-01-05T06:26:28.438Z,59.23
2023-01-05T06:28:55.312Z,61.23
2023-01-05T06:31:22.324Z,61.40
2023-01-05T06:33:49.200Z,60.43
2023-01-05T06:46:15.421Z,67.13
2023-01-05T06:48:42.305Z,65.07
2023-01-05T06:51:09.642Z,63.03
2023-01-05T06:53:37.097Z,62.81
2023-01-05T06:56:04.079Z,63.22
2023-01-05T06:58:31.089Z,63.90
2023-01-05T07:00:58.203Z,65.10
2023-01-05T07:03:25.333Z,66.03
2023-01-05T07:18:07.300Z,68.65
2023-01-05T07:20:34.714Z,67.23
2023-01-05T07:23:01.530Z,66.18
2023-01-05T07:25:31.653Z,63.72
2023-01-05T07:27:58.705Z,63.66
2023-01-05T07:30:25.543Z,63.65
2023-01-05T07:32:53.327Z,64.09
2023-01-05T07:35:20.469Z,64.15
2023-01-05T07:37:47.325Z,64.73
2023-01-05T07:40:14.283Z,63.88
2023-01-05T07:42:41.532Z,62.32
2023-01-05T07:45:09.522Z,61.60
2023-01-05T07:47:39.243Z,62.00
2023-01-05T07:50:06.887Z,62.70
2023-01-05T07:52:34.056Z,62.86
2023-01-05T07:55:01.048Z,63.41
2023-01-05T07:57:28.032Z,63.63
2023-01-05T07:59:54.853Z,62.79
2023-01-05T08:02:22.198Z,61.23
2023-01-05T08:04:49.345Z,60.39
2023-01-05T08:07:16.404Z,60.52
2023-01-05T08:10:02.430Z,61.10
2023-01-05T08:12:29.801Z,61.92
2023-01-05T08:14:56.848Z,62.08
2023-01-05T08:17:24.040Z,63.03
2023-01-05T08:19:50.991Z,62.66
2023-01-05T08:22:18.020Z,61.38
2023-01-05T08:24:44.921Z,61.00
2023-01-05T08:27:11.976Z,61.55
2023-01-05T08:29:38.829Z,62.36
2023-01-05T08:32:05.839Z,63.77
2023-01-05T08:34:34.870Z,64.59
2023-01-05T08:37:02.061Z,64.27
2023-01-05T08:39:28.980Z,62.91
2023-01-05T08:42:02.070Z,62.14
2023-01-05T08:44:29.693Z,62.42
2023-01-05T08:46:56.653Z,62.83
2023-01-05T08:49:26.511Z,63.32
2023-01-05T08:51:53.428Z,63.72
2023-01-05T08:54:20.384Z,63.31
2023-01-05T08:56:50.755Z,61.85
2023-01-05T08:59:17.689Z,60.91
2023-01-05T09:01:44.793Z,60.93
2023-01-05T09:04:11.843Z,61.24
2023-01-05T09:06:39.077Z,61.69
2023-01-05T09:09:06.043Z,61.79
2023-01-05T09:11:34.927Z,61.95
2023-01-05T09:14:03.126Z,61.61
2023-01-05T09:19:18.948Z,58.32
2023-01-05T09:21:46.158Z,58.94
2023-01-05T09:24:13.299Z,58.74
2023-01-05T09:26:42.499Z,58.76
2023-01-05T09:29:10.277Z,58.89
2023-01-05T09:31:37.784Z,59.29
2023-01-05T09:34:04.884Z,59.87
2023-01-05T09:36:32.475Z,61.37
2023-01-05T09:38:59.512Z,61.14
2023-01-05T09:41:47.464Z,60.45
2023-01-05T09:44:37.824Z,60.17
2023-01-05T09:47:15.768Z,60.70
2023-01-05T09:49:42.829Z,61.41
2023-01-05T09:52:11.080Z,62.25
2023-01-05T09:54:40.125Z,62.59
2023-01-05T09:57:13.726Z,63.96
2023-01-05T09:59:51.794Z,63.21
2023-01-05T10:02:24.325Z,61.63
2023-01-05T10:04:51.797Z,61.30
2023-01-05T10:07:25.063Z,61.71
2023-01-05T10:09:52.002Z,62.71
2023-01-05T10:12:40.899Z,62.78
2023-01-05T10:15:19.435Z,63.85
2023-01-05T10:17:47.561Z,63.01
2023-01-05T10:20:29.831Z,61.79
2023-01-05T10:23:02.835Z,62.05
2023-01-05T10:25:49.990Z,62.15
2023-01-05T10:28:41.835Z,62.70
2023-01-05T10:31:19.140Z,63.04
2023-01-05T10:33:54.574Z,63.77
2023-01-05T10:37:06.677Z,62.89
2023-01-05T10:39:44.594Z,61.05
2023-01-05T10:42:17.293Z,60.64
2023-01-05T10:44:59.307Z,60.95
2023-01-05T10:47:27.623Z,61.84
2023-01-05T10:49:54.640Z,62.39
2023-01-05T10:52:22.182Z,63.21
2023-01-05T10:54:59.928Z,62.65
2023-01-05T10:57:35.425Z,60.80
2023-01-05T11:00:12.891Z,59.88
2023-01-05T11:03:03.166Z,60.43
2023-01-05T11:05:35.715Z,60.62
2023-01-05T11:08:05.842Z,60.73
2023-01-05T11:10:38.212Z,61.17
2023-01-05T11:13:27.666Z,62.08
2023-01-05T11:16:16.456Z,61.10
2023-01-05T11:18:49.659Z,59.61
2023-01-05T11:21:20.527Z,59.75
2023-01-05T11:23:57.495Z,60.01
2023-01-05T11:26:27.210Z,61.17
2023-01-05T11:29:03.298Z,61.80
2023-01-05T11:31:56.374Z,62.53
2023-01-05T11:34:42.225Z,63.16
2023-01-05T11:37:30.435Z,61.69
2023-01-05T11:39:58.224Z,60.25
2023-01-05T11:42:26.329Z,60.01
2023-01-05T11:44:57.850Z,60.30
2023-01-05T11:47:43.495Z,60.81
2023-01-05T11:50:14.561Z,61.48
2023-01-05T11:52:47.484Z,61.80
2023-01-05T11:55:22.596Z,62.27
2023-01-05T11:57:55.816Z,61.01
2023-01-05T12:00:51.516Z,59.58
2023-01-05T12:04:09.239Z,59.33
2023-01-05T12:07:05.902Z,60.09
2023-01-05T12:09:44.943Z,60.95
2023-01-05T12:12:24.965Z,61.80
2023-01-05T12:15:17.900Z,62.99
2023-01-05T12:18:00.399Z,62.34
2023-01-05T12:20:55.039Z,61.01
2023-01-05T12:23:47.500Z,61.17
2023-01-05T12:26:23.614Z,62.03
2023-01-05T12:30:26.901Z,62.50
2023-01-05T12:35:37.168Z,64.21
2023-01-05T12:38:46.922Z,62.62
2023-01-05T12:41:29.975Z,61.85
2023-01-05T12:44:11.852Z,62.33
2023-01-05T12:46:43.041Z,62.93
2023-01-05T12:49:14.817Z,64.02
2023-01-05T12:51:51.062Z,64.76
2023-01-05T12:54:27.811Z,65.09
2023-01-05T12:56:57.744Z,63.94
2023-01-05T12:59:33.831Z,62.70
2023-01-05T15:37:36.717Z,77.41
2023-01-05T15:40:08.651Z,72.95
2023-01-05T15:42:39.642Z,69.16
2023-01-05T15:45:18.270Z,67.67
2023-01-05T15:47:44.543Z,67.36
2023-01-05T15:50:21.182Z,67.41
2023-01-05T15:52:55.445Z,67.42
2023-01-05T15:55:21.828Z,66.55
2023-01-05T15:58:00.361Z,65.29
2023-01-05T16:00:28.785Z,64.45
2023-01-05T16:02:55.014Z,64.85
2023-01-05T16:05:23.173Z,65.21
2023-01-05T16:07:59.779Z,64.77
2023-01-05T16:10:27.808Z,63.69
2023-01-05T16:13:01.142Z,63.13
2023-01-05T16:15:27.293Z,63.19
2023-01-05T16:17:54.842Z,63.53
2023-01-05T16:20:23.614Z,64.36
2023-01-05T16:23:11.777Z,64.86
2023-01-05T16:25:42.113Z,63.76
2023-01-05T16:28:18.957Z,62.30
2023-01-05T16:30:46.495Z,61.96
2023-01-05T16:33:21.698Z,62.63
2023-01-05T16:35:54.634Z,63.07
2023-01-05T16:38:28.802Z,63.91
2023-01-05T16:40:57.069Z,64.23
2023-01-05T16:43:30.881Z,63.56
2023-01-05T16:46:20.335Z,61.99
2023-01-05T16:48:50.214Z,60.69
2023-01-05T16:51:18.212Z,61.10
2023-01-05T16:53:46.388Z,61.49
2023-01-05T16:56:31.451Z,61.89
2023-01-05T16:59:01.161Z,62.58
2023-01-05T17:01:34.061Z,62.92
2023-01-05T17:04:08.898Z,62.03
2023-01-05T17:06:35.197Z,60.26
2023-01-05T17:09:01.392Z,59.66
2023-01-05T17:11:30.733Z,59.87
2023-01-05T17:13:57.114Z,60.24
2023-01-05T17:16:23.599Z,60.92
2023-01-05T17:18:50.089Z,61.63
2023-01-05T17:21:21.779Z,62.42
2023-01-05T17:23:49.498Z,61.83
2023-01-05T17:26:27.353Z,60.20
2023-01-05T17:28:56.674Z,60.02
2023-01-05T17:31:22.910Z,60.15
2023-01-05T17:33:49.036Z,60.48
2023-01-05T17:36:16.540Z,61.16
2023-01-05T17:38:42.711Z,61.52
2023-01-05T17:41:09.816Z,62.52
2023-01-05T17:43:36.064Z,62.03
2023-01-05T17:46:02.334Z,60.52
2023-01-05T17:48:28.744Z,60.14
2023-01-05T17:50:54.949Z,60.55
2023-01-05T17:53:24.307Z,60.94
2023-01-05T17:55:50.957Z,61.69
2023-01-05T17:58:17.122Z,62.22
2023-01-05T18:03:21.044Z,62.97
2023-01-05T18:05:48.418Z,61.57
2023-01-05T18:08:14.767Z,61.36
2023-01-05T18:13:13.143Z,62.47
2023-01-05T18:15:43.985Z,63.07
2023-01-05T18:18:11.199Z,63.72
2023-01-05T18:20:39.572Z,62.94
2023-01-05T18:25:38.179Z,60.98
2023-01-05T18:28:04.644Z,61.42
2023-01-05T18:30:30.782Z,62.06
2023-01-05T18:32:57.739Z,62.30
2023-01-05T18:35:24.048Z,62.80
2023-01-05T18:37:50.184Z,63.15
2023-01-05T18:40:16.532Z,62.93
2023-01-05T18:42:43.242Z,61.20
2023-01-05T18:45:19.782Z,60.51
2023-01-05T18:47:55.992Z,60.75
2023-01-05T18:50:22.212Z,61.14
2023-01-05T18:52:48.508Z,61.57
2023-01-05T18:55:14.726Z,61.88
2023-01-05T18:57:40.879Z,62.48
2023-01-05T19:00:07.786Z,62.29
2023-01-05T19:02:34.956Z,60.65
2023-01-05T19:05:01.490Z,59.76
2023-01-05T19:07:27.730Z,60.23
2023-01-05T19:09:54.442Z,60.71
2023-01-05T19:12:21.157Z,61.50
2023-01-05T19:14:47.460Z,62.03
2023-01-05T19:17:13.741Z,62.67
2023-01-05T19:19:40.460Z,62.46
2023-01-05T19:22:06.665Z,61.18
2023-01-05T19:24:34.869Z,60.48
2023-01-05T19:27:01.326Z,61.18
2023-01-05T19:29:27.585Z,61.66
2023-01-05T19:31:54.425Z,62.40
2023-01-05T19:34:20.677Z,63.02
2023-01-05T19:48:11.002Z,65.77
2023-01-05T19:50:38.288Z,64.47
2023-01-05T19:53:05.255Z,64.59
2023-01-05T19:55:32.266Z,65.27
2023-01-05T19:57:59.175Z,64.82
2023-01-05T20:00:26.090Z,63.18
2023-01-05T20:02:53.060Z,62.62
2023-01-05T20:05:20.463Z,63.13
2023-01-05T20:07:47.221Z,63.36
2023-01-05T20:10:14.587Z,64.00
2023-01-05T20:12:42.260Z,64.94
2023-01-05T20:15:12.006Z,64.69
2023-01-05T20:17:39.780Z,63.73
2023-01-05T20:20:07.131Z,63.75
2023-01-05T20:22:34.026Z,63.83
2023-01-05T20:25:01.071Z,64.71
2023-01-05T20:27:28.319Z,65.58
2023-01-05T20:29:55.570Z,66.68
2023-01-05T20:32:23.580Z,66.11
2023-01-05T20:34:57.584Z,64.91
2023-01-05T20:37:24.690Z,64.62
2023-01-05T20:39:51.571Z,64.85
2023-01-05T20:42:18.482Z,65.39
2023-01-05T20:44:46.451Z,66.25
2023-01-05T20:47:15.560Z,66.13
2023-01-05T20:49:42.933Z,64.42
2023-01-05T20:52:09.985Z,63.94
2023-01-05T20:54:37.175Z,64.14
2023-01-05T20:57:04.052Z,65.10
2023-01-05T20:59:32.553Z,65.51
2023-01-05T21:01:59.879Z,66.45
2023-01-05T21:04:27.678Z,66.16
2023-01-05T21:06:54.787Z,64.90
2023-01-05T21:09:22.597Z,64.67
2023-01-05T21:11:49.601Z,64.81
2023-01-05T21:14:16.954Z,65.11
2023-01-05T21:16:52.378Z,65.90
2023-01-05T21:19:22.127Z,65.35
2023-01-05T21:21:50.686Z,64.16
2023-01-05T21:24:17.859Z,63.88
2023-01-05T21:26:45.401Z,64.29
2023-01-05T21:29:13.694Z,65.35
2023-01-05T21:31:40.654Z,66.29
2023-01-05T21:34:08.102Z,67.14
2023-01-05T21:36:38.443Z,66.27
2023-01-05T21:39:08.313Z,65.15
2023-01-05T21:41:54.841Z,64.84
2023-01-05T21:44:22.312Z,65.66
2023-01-05T21:46:49.848Z,66.02
2023-01-05T21:49:17.193Z,66.82
2023-01-05T21:52:02.889Z,66.67
2023-01-05T21:54:48.688Z,65.21
2023-01-05T21:57:15.797Z,64.86
2023-01-05T21:59:43.522Z,65.35
2023-01-05T22:02:13.256Z,65.88
2023-01-05T22:04:40.464Z,66.80
2023-01-05T22:07:07.647Z,67.69
2023-01-05T22:09:35.464Z,66.85
2023-01-05T22:12:09.336Z,65.02
2023-01-05T22:14:37.211Z,64.87
2023-01-05T22:17:06.134Z,64.86
2023-01-05T22:19:33.434Z,65.36
2023-01-05T22:22:00.421Z,65.96
2023-01-05T22:24:27.354Z,66.48
2023-01-05T22:26:54.299Z,65.35
2023-01-05T22:29:21.293Z,63.96
2023-01-05T22:31:50.693Z,63.49
2023-01-05T22:34:17.966Z,64.07
2023-01-05T22:36:45.388Z,64.82
2023-01-05T22:39:12.419Z,65.65
2023-01-05T22:41:40.769Z,64.93
2023-01-05T22:44:08.456Z,63.78
2023-01-05T22:46:35.623Z,63.33
2023-01-05T22:49:04.164Z,63.57
2023-01-05T22:51:34.114Z,64.49
2023-01-05T22:54:01.234Z,65.26
2023-01-05T22:56:31.925Z,66.07
2023-01-05T22:58:59.608Z,65.42
2023-01-05T23:01:28.089Z,64.32
2023-01-05T23:03:56.030Z,63.82
2023-01-05T23:06:23.359Z,64.01
2023-01-05T23:08:51.184Z,64.72
2023-01-05T23:11:23.530Z,64.74
2023-01-05T23:13:51.013Z,66.02
2023-01-05T23:16:21.571Z,65.31
2023-01-05T23:18:49.860Z,64.29
2023-01-05T23:21:17.618Z,63.89
2023-01-05T23:23:44.528Z,63.82
2023-01-05T23:26:12.409Z,64.39
2023-01-05T23:28:39.618Z,64.68
2023-01-05T23:31:06.534Z,65.14
2023-01-05T23:33:35.406Z,64.39
2023-01-05T23:36:02.553Z,62.75
2023-01-05T23:38:30.113Z,62.32
2023-01-05T23:40:57.547Z,62.31
2023-01-05T23:43:29.525Z,63.08
2023-01-05T23:46:07.756Z,63.64
2023-01-05T23:48:36.197Z,64.21
2023-01-05T23:51:04.568Z,63.05
2023-01-05T23:53:31.600Z,62.03
2023-01-05T23:56:10.214Z,61.49
2023-01-05T23:58:37.388Z,61.96
